sensor_id;sensor_type;location;lat;lon;timestamp;temperature;humidity
19359;DHT22;9815;52.334;20.890;2023-08-06T00:02:13;18.60;99.90
19359;DHT22;9815;52.334;20.890;2023-08-06T00:04:41;18.70;99.90
19359;DHT22;9815;52.334;20.890;2023-08-06T00:07:09;18.70;99.90
19359;DHT22;9815;52.334;20.890;2023-08-06T00:09:39;18.70;99.90
19359;DHT22;9815;52.334;20.890;2023-08-06T00:12:08;18.70;99.90
19359;DHT22;9815;52.334;20.890;2023-08-06T00:14:36;18.70;99.90
19359;DHT22;9815;52.334;20.890;2023-08-06T00:17:04;18.70;99.90
19359;DHT22;9815;52.334;20.890;2023-08-06T00:19:33;18.60;99.90
19359;DHT22;9815;52.334;20.890;2023-08-06T00:22:01;18.70;99.90
19359;DHT22;9815;52.334;20.890;2023-08-06T00:24:29;18.70;99.90
19359;DHT22;9815;52.334;20.890;2023-08-06T00:26:59;18.70;99.90
19359;DHT22;9815;52.334;20.890;2023-08-06T00:29:27;18.60;99.90
19359;DHT22;9815;52.334;20.890;2023-08-06T00:31:56;18.60;99.90
19359;DHT22;9815;52.334;20.890;2023-08-06T00:34:24;18.60;99.90
19359;DHT22;9815;52.334;20.890;2023-08-06T00:36:53;18.50;99.90
19359;DHT22;9815;52.334;20.890;2023-08-06T00:39:21;18.50;99.90
19359;DHT22;9815;52.334;20.890;2023-08-06T00:41:49;18.50;99.90
19359;DHT22;9815;52.334;20.890;2023-08-06T00:44:20;18.50;99.90
19359;DHT22;9815;52.334;20.890;2023-08-06T00:46:48;18.50;99.90
19359;DHT22;9815;52.334;20.890;2023-08-06T00:49:16;18.50;99.90
19359;DHT22;9815;52.334;20.890;2023-08-06T00:51:45;18.40;99.90
19359;DHT22;9815;52.334;20.890;2023-08-06T00:54:14;18.40;99.90
19359;DHT22;9815;52.334;20.890;2023-08-06T00:56:43;18.50;99.90
19359;DHT22;9815;52.334;20.890;2023-08-06T00:59:12;18.40;99.90
19359;DHT22;9815;52.334;20.890;2023-08-06T01:01:42;18.40;99.90
19359;DHT22;9815;52.334;20.890;2023-08-06T01:04:10;18.40;99.90
19359;DHT22;9815;52.334;20.890;2023-08-06T01:06:45;18.40;99.90
19359;DHT22;9815;52.334;20.890;2023-08-06T01:09:27;18.40;99.90
19359;DHT22;9815;52.334;20.890;2023-08-06T01:12:06;18.40;99.90
19359;DHT22;9815;52.334;20.890;2023-08-06T01:14:45;18.40;99.90
19359;DHT22;9815;52.334;20.890;2023-08-06T01:17:17;18.30;99.90
19359;DHT22;9815;52.334;20.890;2023-08-06T01:19:46;18.30;99.90
19359;DHT22;9815;52.334;20.890;2023-08-06T01:22:16;18.30;99.90
19359;DHT22;9815;52.334;20.890;2023-08-06T01:24:47;18.30;99.90
19359;DHT22;9815;52.334;20.890;2023-08-06T01:27:23;18.30;99.90
19359;DHT22;9815;52.334;20.890;2023-08-06T01:30:00;18.40;99.90
19359;DHT22;9815;52.334;20.890;2023-08-06T01:32:32;18.40;99.90
19359;DHT22;9815;52.334;20.890;2023-08-06T01:35:05;18.40;99.90
19359;DHT22;9815;52.334;20.890;2023-08-06T01:37:34;18.40;99.90
19359;DHT22;9815;52.334;20.890;2023-08-06T01:40:06;18.50;99.90
19359;DHT22;9815;52.334;20.890;2023-08-06T01:42:35;18.50;99.90
19359;DHT22;9815;52.334;20.890;2023-08-06T01:45:04;18.50;99.90
19359;DHT22;9815;52.334;20.890;2023-08-06T01:47:32;18.50;99.90
19359;DHT22;9815;52.334;20.890;2023-08-06T01:50:00;18.60;99.90
19359;DHT22;9815;52.334;20.890;2023-08-06T01:52:29;18.60;99.90
19359;DHT22;9815;52.334;20.890;2023-08-06T01:54:59;18.60;99.90
19359;DHT22;9815;52.334;20.890;2023-08-06T01:57:28;18.60;99.90
19359;DHT22;9815;52.334;20.890;2023-08-06T01:59:56;18.60;99.90
19359;DHT22;9815;52.334;20.890;2023-08-06T02:02:25;18.60;99.90
19359;DHT22;9815;52.334;20.890;2023-08-06T02:04:53;18.60;99.90
19359;DHT22;9815;52.334;20.890;2023-08-06T02:07:21;18.60;99.90
19359;DHT22;9815;52.334;20.890;2023-08-06T02:09:49;18.60;99.90
19359;DHT22;9815;52.334;20.890;2023-08-06T02:12:20;18.60;99.90
19359;DHT22;9815;52.334;20.890;2023-08-06T02:14:50;18.60;99.90
19359;DHT22;9815;52.334;20.890;2023-08-06T02:17:18;18.60;99.90
19359;DHT22;9815;52.334;20.890;2023-08-06T02:19:46;18.70;99.90
19359;DHT22;9815;52.334;20.890;2023-08-06T02:22:14;18.70;99.90
19359;DHT22;9815;52.334;20.890;2023-08-06T02:24:43;18.70;99.90
19359;DHT22;9815;52.334;20.890;2023-08-06T02:27:12;18.70;99.90
19359;DHT22;9815;52.334;20.890;2023-08-06T02:29:42;18.70;99.90
19359;DHT22;9815;52.334;20.890;2023-08-06T02:32:12;18.70;99.90
19359;DHT22;9815;52.334;20.890;2023-08-06T02:34:40;18.80;99.90
19359;DHT22;9815;52.334;20.890;2023-08-06T02:37:08;18.80;99.90
19359;DHT22;9815;52.334;20.890;2023-08-06T02:39:38;18.80;99.90
19359;DHT22;9815;52.334;20.890;2023-08-06T02:42:07;18.80;99.90
19359;DHT22;9815;52.334;20.890;2023-08-06T02:44:36;18.80;99.90
19359;DHT22;9815;52.334;20.890;2023-08-06T02:47:06;18.80;99.90
19359;DHT22;9815;52.334;20.890;2023-08-06T02:49:34;18.80;99.90
19359;DHT22;9815;52.334;20.890;2023-08-06T02:52:03;18.80;99.90
19359;DHT22;9815;52.334;20.890;2023-08-06T02:54:32;18.80;99.90
19359;DHT22;9815;52.334;20.890;2023-08-06T02:57:01;18.90;99.90
19359;DHT22;9815;52.334;20.890;2023-08-06T02:59:32;18.90;99.90
19359;DHT22;9815;52.334;20.890;2023-08-06T03:02:13;18.90;99.90
19359;DHT22;9815;52.334;20.890;2023-08-06T03:05:01;18.90;99.90
19359;DHT22;9815;52.334;20.890;2023-08-06T03:07:34;18.90;99.90
19359;DHT22;9815;52.334;20.890;2023-08-06T03:10:11;18.90;99.90
19359;DHT22;9815;52.334;20.890;2023-08-06T03:12:40;18.90;99.90
19359;DHT22;9815;52.334;20.890;2023-08-06T03:15:09;18.90;99.90
19359;DHT22;9815;52.334;20.890;2023-08-06T03:17:41;18.90;99.90
19359;DHT22;9815;52.334;20.890;2023-08-06T03:20:10;18.90;99.90
19359;DHT22;9815;52.334;20.890;2023-08-06T03:22:39;19.00;99.90
19359;DHT22;9815;52.334;20.890;2023-08-06T03:25:08;18.90;99.90
19359;DHT22;9815;52.334;20.890;2023-08-06T03:27:37;19.00;99.90
19359;DHT22;9815;52.334;20.890;2023-08-06T03:30:07;19.00;99.90
19359;DHT22;9815;52.334;20.890;2023-08-06T03:32:38;19.00;99.90
19359;DHT22;9815;52.334;20.890;2023-08-06T03:35:08;19.10;99.90
19359;DHT22;9815;52.334;20.890;2023-08-06T03:37:36;19.00;99.90
19359;DHT22;9815;52.334;20.890;2023-08-06T03:40:07;19.10;99.90
19359;DHT22;9815;52.334;20.890;2023-08-06T03:42:35;19.10;99.90
19359;DHT22;9815;52.334;20.890;2023-08-06T03:45:05;19.10;99.90
19359;DHT22;9815;52.334;20.890;2023-08-06T03:47:33;19.00;99.90
19359;DHT22;9815;52.334;20.890;2023-08-06T03:50:02;19.10;99.90
19359;DHT22;9815;52.334;20.890;2023-08-06T03:52:32;19.10;99.90
19359;DHT22;9815;52.334;20.890;2023-08-06T03:55:00;19.10;99.90
19359;DHT22;9815;52.334;20.890;2023-08-06T03:57:29;19.20;99.90
19359;DHT22;9815;52.334;20.890;2023-08-06T03:59:57;19.20;99.90
19359;DHT22;9815;52.334;20.890;2023-08-06T04:02:29;19.20;99.90
19359;DHT22;9815;52.334;20.890;2023-08-06T04:05:00;19.20;99.90
19359;DHT22;9815;52.334;20.890;2023-08-06T04:07:29;19.20;99.90
19359;DHT22;9815;52.334;20.890;2023-08-06T04:10:00;19.20;99.90
19359;DHT22;9815;52.334;20.890;2023-08-06T04:12:30;19.30;99.90
19359;DHT22;9815;52.334;20.890;2023-08-06T04:15:01;19.30;99.90
19359;DHT22;9815;52.334;20.890;2023-08-06T04:17:30;19.30;99.90
19359;DHT22;9815;52.334;20.890;2023-08-06T04:19:59;19.30;99.90
19359;DHT22;9815;52.334;20.890;2023-08-06T04:22:27;19.40;99.90
19359;DHT22;9815;52.334;20.890;2023-08-06T04:24:55;19.40;99.90
19359;DHT22;9815;52.334;20.890;2023-08-06T04:27:25;19.40;99.90
19359;DHT22;9815;52.334;20.890;2023-08-06T04:29:55;19.40;99.90
19359;DHT22;9815;52.334;20.890;2023-08-06T04:32:24;19.50;99.90
19359;DHT22;9815;52.334;20.890;2023-08-06T04:34:55;19.50;99.90
19359;DHT22;9815;52.334;20.890;2023-08-06T04:37:24;19.50;99.90
19359;DHT22;9815;52.334;20.890;2023-08-06T04:39:53;19.50;99.90
19359;DHT22;9815;52.334;20.890;2023-08-06T04:42:22;19.50;99.90
19359;DHT22;9815;52.334;20.890;2023-08-06T04:44:52;19.60;99.90
19359;DHT22;9815;52.334;20.890;2023-08-06T04:47:20;19.60;99.90
19359;DHT22;9815;52.334;20.890;2023-08-06T04:49:49;19.60;99.90
19359;DHT22;9815;52.334;20.890;2023-08-06T04:52:17;19.60;99.90
19359;DHT22;9815;52.334;20.890;2023-08-06T04:54:45;19.70;99.90
19359;DHT22;9815;52.334;20.890;2023-08-06T04:57:13;19.70;99.90
19359;DHT22;9815;52.334;20.890;2023-08-06T04:59:42;19.70;99.90
19359;DHT22;9815;52.334;20.890;2023-08-06T05:02:11;19.80;99.90
19359;DHT22;9815;52.334;20.890;2023-08-06T05:04:40;19.80;99.90
19359;DHT22;9815;52.334;20.890;2023-08-06T05:07:10;19.80;99.90
19359;DHT22;9815;52.334;20.890;2023-08-06T05:09:38;19.90;99.90
19359;DHT22;9815;52.334;20.890;2023-08-06T05:12:07;19.90;99.90
19359;DHT22;9815;52.334;20.890;2023-08-06T05:14:36;19.90;99.90
19359;DHT22;9815;52.334;20.890;2023-08-06T05:17:04;20.00;99.90
19359;DHT22;9815;52.334;20.890;2023-08-06T05:19:34;20.00;99.90
19359;DHT22;9815;52.334;20.890;2023-08-06T05:22:03;20.10;99.90
19359;DHT22;9815;52.334;20.890;2023-08-06T05:24:31;20.10;99.90
19359;DHT22;9815;52.334;20.890;2023-08-06T05:26:59;20.20;99.90
19359;DHT22;9815;52.334;20.890;2023-08-06T05:29:28;20.30;99.90
19359;DHT22;9815;52.334;20.890;2023-08-06T05:31:56;20.40;99.90
19359;DHT22;9815;52.334;20.890;2023-08-06T05:34:24;20.40;99.90
19359;DHT22;9815;52.334;20.890;2023-08-06T05:36:54;20.50;99.90
19359;DHT22;9815;52.334;20.890;2023-08-06T05:39:22;20.50;99.90
19359;DHT22;9815;52.334;20.890;2023-08-06T05:41:51;20.60;99.90
19359;DHT22;9815;52.334;20.890;2023-08-06T05:44:19;20.60;99.90
19359;DHT22;9815;52.334;20.890;2023-08-06T05:46:49;20.70;99.90
19359;DHT22;9815;52.334;20.890;2023-08-06T05:49:18;20.70;99.90
19359;DHT22;9815;52.334;20.890;2023-08-06T05:51:46;20.70;99.90
19359;DHT22;9815;52.334;20.890;2023-08-06T05:54:16;20.80;99.90
19359;DHT22;9815;52.334;20.890;2023-08-06T05:56:45;20.90;99.90
19359;DHT22;9815;52.334;20.890;2023-08-06T05:59:13;21.00;99.90
19359;DHT22;9815;52.334;20.890;2023-08-06T06:01:41;21.00;99.90
19359;DHT22;9815;52.334;20.890;2023-08-06T06:04:09;21.10;99.90
19359;DHT22;9815;52.334;20.890;2023-08-06T06:06:38;21.10;99.90
19359;DHT22;9815;52.334;20.890;2023-08-06T06:09:06;21.20;99.90
19359;DHT22;9815;52.334;20.890;2023-08-06T06:11:36;21.30;99.90
19359;DHT22;9815;52.334;20.890;2023-08-06T06:14:04;21.30;99.90
19359;DHT22;9815;52.334;20.890;2023-08-06T06:16:32;21.40;99.90
19359;DHT22;9815;52.334;20.890;2023-08-06T06:19:00;21.40;99.90
19359;DHT22;9815;52.334;20.890;2023-08-06T06:21:29;21.50;99.90
19359;DHT22;9815;52.334;20.890;2023-08-06T06:23:57;21.60;99.90
19359;DHT22;9815;52.334;20.890;2023-08-06T06:26:25;21.70;99.90
19359;DHT22;9815;52.334;20.890;2023-08-06T06:28:55;21.70;99.90
19359;DHT22;9815;52.334;20.890;2023-08-06T06:31:23;21.80;99.90
19359;DHT22;9815;52.334;20.890;2023-08-06T06:33:52;21.80;99.90
19359;DHT22;9815;52.334;20.890;2023-08-06T06:36:21;21.90;99.90
19359;DHT22;9815;52.334;20.890;2023-08-06T06:38:50;21.90;99.90
19359;DHT22;9815;52.334;20.890;2023-08-06T06:41:19;22.00;99.90
19359;DHT22;9815;52.334;20.890;2023-08-06T06:43:47;22.00;99.90
19359;DHT22;9815;52.334;20.890;2023-08-06T06:46:16;22.10;99.90
19359;DHT22;9815;52.334;20.890;2023-08-06T06:48:48;22.20;99.90
19359;DHT22;9815;52.334;20.890;2023-08-06T06:51:17;22.40;99.90
19359;DHT22;9815;52.334;20.890;2023-08-06T06:53:45;22.60;99.90
19359;DHT22;9815;52.334;20.890;2023-08-06T06:56:13;22.80;99.90
19359;DHT22;9815;52.334;20.890;2023-08-06T06:58:45;23.00;99.90
19359;DHT22;9815;52.334;20.890;2023-08-06T07:01:13;23.20;99.90
19359;DHT22;9815;52.334;20.890;2023-08-06T07:03:43;23.30;99.90
19359;DHT22;9815;52.334;20.890;2023-08-06T07:06:11;23.30;99.90
19359;DHT22;9815;52.334;20.890;2023-08-06T07:08:39;23.30;99.90
19359;DHT22;9815;52.334;20.890;2023-08-06T07:11:08;23.40;99.90
19359;DHT22;9815;52.334;20.890;2023-08-06T07:13:36;23.40;99.90
19359;DHT22;9815;52.334;20.890;2023-08-06T07:16:05;23.40;99.90
19359;DHT22;9815;52.334;20.890;2023-08-06T07:18:37;23.50;99.90
19359;DHT22;9815;52.334;20.890;2023-08-06T07:21:07;23.50;99.90
19359;DHT22;9815;52.334;20.890;2023-08-06T07:23:35;23.50;99.90
19359;DHT22;9815;52.334;20.890;2023-08-06T07:26:04;23.60;99.90
19359;DHT22;9815;52.334;20.890;2023-08-06T07:28:32;23.70;99.90
19359;DHT22;9815;52.334;20.890;2023-08-06T07:31:02;23.80;99.90
19359;DHT22;9815;52.334;20.890;2023-08-06T07:33:35;23.90;99.90
19359;DHT22;9815;52.334;20.890;2023-08-06T07:36:09;24.00;99.90
19359;DHT22;9815;52.334;20.890;2023-08-06T07:38:37;24.00;99.90
19359;DHT22;9815;52.334;20.890;2023-08-06T07:41:06;24.20;99.90
19359;DHT22;9815;52.334;20.890;2023-08-06T07:43:34;24.30;99.90
19359;DHT22;9815;52.334;20.890;2023-08-06T07:46:03;24.40;99.90
19359;DHT22;9815;52.334;20.890;2023-08-06T07:48:32;24.70;99.90
19359;DHT22;9815;52.334;20.890;2023-08-06T07:51:01;24.90;99.90
19359;DHT22;9815;52.334;20.890;2023-08-06T07:53:30;24.90;99.90
19359;DHT22;9815;52.334;20.890;2023-08-06T07:56:01;25.00;99.90
19359;DHT22;9815;52.334;20.890;2023-08-06T07:58:30;25.10;99.90
19359;DHT22;9815;52.334;20.890;2023-08-06T08:00:58;25.00;99.90
19359;DHT22;9815;52.334;20.890;2023-08-06T08:03:30;25.00;99.90
19359;DHT22;9815;52.334;20.890;2023-08-06T08:05:59;25.10;99.90
19359;DHT22;9815;52.334;20.890;2023-08-06T08:08:27;25.20;99.90
19359;DHT22;9815;52.334;20.890;2023-08-06T08:10:57;25.20;99.90
19359;DHT22;9815;52.334;20.890;2023-08-06T08:13:26;25.30;99.90
19359;DHT22;9815;52.334;20.890;2023-08-06T08:15:57;25.40;99.90
19359;DHT22;9815;52.334;20.890;2023-08-06T08:18:26;25.40;99.90
19359;DHT22;9815;52.334;20.890;2023-08-06T08:20:54;25.40;99.90
19359;DHT22;9815;52.334;20.890;2023-08-06T08:23:23;25.60;99.90
19359;DHT22;9815;52.334;20.890;2023-08-06T08:25:51;25.80;99.90
19359;DHT22;9815;52.334;20.890;2023-08-06T08:28:21;26.00;99.90
19359;DHT22;9815;52.334;20.890;2023-08-06T08:30:49;26.20;99.90
19359;DHT22;9815;52.334;20.890;2023-08-06T08:33:18;26.40;99.90
19359;DHT22;9815;52.334;20.890;2023-08-06T08:35:46;26.70;99.90
19359;DHT22;9815;52.334;20.890;2023-08-06T08:38:15;27.00;99.90
19359;DHT22;9815;52.334;20.890;2023-08-06T08:40:46;27.30;99.90
19359;DHT22;9815;52.334;20.890;2023-08-06T08:43:15;27.50;99.90
19359;DHT22;9815;52.334;20.890;2023-08-06T08:45:46;27.60;99.90
19359;DHT22;9815;52.334;20.890;2023-08-06T08:48:18;27.90;99.30
19359;DHT22;9815;52.334;20.890;2023-08-06T08:50:49;27.90;99.90
19359;DHT22;9815;52.334;20.890;2023-08-06T08:53:17;28.00;96.90
19359;DHT22;9815;52.334;20.890;2023-08-06T08:55:48;27.90;98.50
19359;DHT22;9815;52.334;20.890;2023-08-06T08:58:16;27.80;99.30
19359;DHT22;9815;52.334;20.890;2023-08-06T09:00:47;27.80;97.80
19359;DHT22;9815;52.334;20.890;2023-08-06T09:03:16;27.80;99.80
19359;DHT22;9815;52.334;20.890;2023-08-06T09:05:45;28.10;99.90
19359;DHT22;9815;52.334;20.890;2023-08-06T09:08:18;28.30;95.80
19359;DHT22;9815;52.334;20.890;2023-08-06T09:10:49;28.40;89.10
19359;DHT22;9815;52.334;20.890;2023-08-06T09:13:19;28.50;82.60
19359;DHT22;9815;52.334;20.890;2023-08-06T09:15:54;28.60;78.40
19359;DHT22;9815;52.334;20.890;2023-08-06T09:18:28;28.70;77.00
19359;DHT22;9815;52.334;20.890;2023-08-06T09:20:57;28.70;76.30
19359;DHT22;9815;52.334;20.890;2023-08-06T09:23:28;28.90;79.20
19359;DHT22;9815;52.334;20.890;2023-08-06T09:25:58;29.10;86.70
19359;DHT22;9815;52.334;20.890;2023-08-06T09:28:36;29.50;81.60
19359;DHT22;9815;52.334;20.890;2023-08-06T09:31:08;29.60;64.00
19359;DHT22;9815;52.334;20.890;2023-08-06T09:33:37;29.80;67.40
19359;DHT22;9815;52.334;20.890;2023-08-06T09:36:09;30.00;56.20
19359;DHT22;9815;52.334;20.890;2023-08-06T09:38:39;30.20;57.70
19359;DHT22;9815;52.334;20.890;2023-08-06T09:41:08;30.10;53.00
19359;DHT22;9815;52.334;20.890;2023-08-06T09:43:41;29.80;53.20
19359;DHT22;9815;52.334;20.890;2023-08-06T09:46:14;29.50;56.70
19359;DHT22;9815;52.334;20.890;2023-08-06T09:48:47;29.00;65.60
19359;DHT22;9815;52.334;20.890;2023-08-06T09:51:18;28.90;67.60
19359;DHT22;9815;52.334;20.890;2023-08-06T09:53:48;28.80;68.80
19359;DHT22;9815;52.334;20.890;2023-08-06T09:56:17;28.90;63.60
19359;DHT22;9815;52.334;20.890;2023-08-06T09:58:47;29.00;68.90
19359;DHT22;9815;52.334;20.890;2023-08-06T10:01:19;29.20;60.90
19359;DHT22;9815;52.334;20.890;2023-08-06T10:03:50;29.30;63.90
19359;DHT22;9815;52.334;20.890;2023-08-06T10:06:19;29.50;60.10
19359;DHT22;9815;52.334;20.890;2023-08-06T10:08:48;29.50;56.10
19359;DHT22;9815;52.334;20.890;2023-08-06T10:11:17;29.50;60.40
19359;DHT22;9815;52.334;20.890;2023-08-06T10:13:49;29.90;53.30
19359;DHT22;9815;52.334;20.890;2023-08-06T10:16:21;30.60;46.60
19359;DHT22;9815;52.334;20.890;2023-08-06T10:18:51;31.00;39.20
19359;DHT22;9815;52.334;20.890;2023-08-06T10:21:20;31.20;39.10
19359;DHT22;9815;52.334;20.890;2023-08-06T10:23:54;30.90;39.50
19359;DHT22;9815;52.334;20.890;2023-08-06T10:26:25;30.80;40.90
19359;DHT22;9815;52.334;20.890;2023-08-06T10:28:57;30.90;39.70
19359;DHT22;9815;52.334;20.890;2023-08-06T10:31:54;30.80;40.50
19359;DHT22;9815;52.334;20.890;2023-08-06T10:34:23;30.90;40.30
19359;DHT22;9815;52.334;20.890;2023-08-06T10:36:54;31.00;40.20
19359;DHT22;9815;52.334;20.890;2023-08-06T10:39:23;31.40;37.10
19359;DHT22;9815;52.334;20.890;2023-08-06T10:41:57;31.70;36.40
19359;DHT22;9815;52.334;20.890;2023-08-06T10:44:26;32.30;35.20
19359;DHT22;9815;52.334;20.890;2023-08-06T10:47:26;32.50;30.80
19359;DHT22;9815;52.334;20.890;2023-08-06T10:49:54;31.90;32.70
19359;DHT22;9815;52.334;20.890;2023-08-06T10:52:23;31.70;33.00
19359;DHT22;9815;52.334;20.890;2023-08-06T10:54:51;31.50;31.00
19359;DHT22;9815;52.334;20.890;2023-08-06T10:57:22;31.20;33.30
19359;DHT22;9815;52.334;20.890;2023-08-06T10:59:50;30.80;32.70
19359;DHT22;9815;52.334;20.890;2023-08-06T11:02:38;30.50;35.60
19359;DHT22;9815;52.334;20.890;2023-08-06T11:05:07;30.00;37.50
19359;DHT22;9815;52.334;20.890;2023-08-06T11:07:36;30.30;39.30
19359;DHT22;9815;52.334;20.890;2023-08-06T11:10:06;30.80;38.30
19359;DHT22;9815;52.334;20.890;2023-08-06T11:12:35;31.60;36.00
19359;DHT22;9815;52.334;20.890;2023-08-06T11:15:05;32.10;31.20
19359;DHT22;9815;52.334;20.890;2023-08-06T11:17:34;32.10;31.40
19359;DHT22;9815;52.334;20.890;2023-08-06T11:20:05;31.50;32.40
19359;DHT22;9815;52.334;20.890;2023-08-06T11:22:36;30.90;32.30
19359;DHT22;9815;52.334;20.890;2023-08-06T11:25:06;30.50;31.50
19359;DHT22;9815;52.334;20.890;2023-08-06T11:27:35;30.10;33.70
19359;DHT22;9815;52.334;20.890;2023-08-06T11:30:04;29.80;35.90
19359;DHT22;9815;52.334;20.890;2023-08-06T11:32:32;29.60;37.90
19359;DHT22;9815;52.334;20.890;2023-08-06T11:35:11;29.80;38.70
19359;DHT22;9815;52.334;20.890;2023-08-06T11:37:43;30.20;34.50
19359;DHT22;9815;52.334;20.890;2023-08-06T11:40:15;30.40;33.70
19359;DHT22;9815;52.334;20.890;2023-08-06T11:42:44;30.30;34.40
19359;DHT22;9815;52.334;20.890;2023-08-06T11:45:15;30.00;34.30
19359;DHT22;9815;52.334;20.890;2023-08-06T11:47:49;29.60;34.90
19359;DHT22;9815;52.334;20.890;2023-08-06T11:50:24;29.30;36.70
19359;DHT22;9815;52.334;20.890;2023-08-06T11:52:57;29.00;37.40
19359;DHT22;9815;52.334;20.890;2023-08-06T11:55:28;29.40;38.80
19359;DHT22;9815;52.334;20.890;2023-08-06T11:57:56;30.20;37.40
19359;DHT22;9815;52.334;20.890;2023-08-06T12:00:25;31.00;32.50
19359;DHT22;9815;52.334;20.890;2023-08-06T12:02:54;31.60;31.20
19359;DHT22;9815;52.334;20.890;2023-08-06T12:05:29;32.00;29.50
19359;DHT22;9815;52.334;20.890;2023-08-06T12:08:01;31.80;29.60
19359;DHT22;9815;52.334;20.890;2023-08-06T12:10:31;31.60;30.00
19359;DHT22;9815;52.334;20.890;2023-08-06T12:13:00;31.10;29.60
19359;DHT22;9815;52.334;20.890;2023-08-06T12:15:30;30.70;31.80
19359;DHT22;9815;52.334;20.890;2023-08-06T12:17:59;30.40;32.90
19359;DHT22;9815;52.334;20.890;2023-08-06T12:20:29;30.40;31.10
19359;DHT22;9815;52.334;20.890;2023-08-06T12:22:58;30.30;29.40
19359;DHT22;9815;52.334;20.890;2023-08-06T12:25:27;30.20;30.50
19359;DHT22;9815;52.334;20.890;2023-08-06T12:27:55;30.10;31.00
19359;DHT22;9815;52.334;20.890;2023-08-06T12:30:24;30.10;31.50
19359;DHT22;9815;52.334;20.890;2023-08-06T12:32:53;30.00;31.10
19359;DHT22;9815;52.334;20.890;2023-08-06T12:35:22;29.80;31.40
19359;DHT22;9815;52.334;20.890;2023-08-06T12:37:54;29.70;31.60
19359;DHT22;9815;52.334;20.890;2023-08-06T12:40:25;29.50;32.10
19359;DHT22;9815;52.334;20.890;2023-08-06T12:43:04;29.40;33.70
19359;DHT22;9815;52.334;20.890;2023-08-06T12:45:33;29.20;37.80
19359;DHT22;9815;52.334;20.890;2023-08-06T12:48:02;29.00;36.90
19359;DHT22;9815;52.334;20.890;2023-08-06T12:50:30;28.80;37.10
19359;DHT22;9815;52.334;20.890;2023-08-06T12:53:01;28.70;37.00
19359;DHT22;9815;52.334;20.890;2023-08-06T12:55:31;28.60;37.10
19359;DHT22;9815;52.334;20.890;2023-08-06T12:57:59;28.40;37.60
19359;DHT22;9815;52.334;20.890;2023-08-06T13:00:28;28.30;38.00
19359;DHT22;9815;52.334;20.890;2023-08-06T13:02:57;28.20;39.70
19359;DHT22;9815;52.334;20.890;2023-08-06T13:05:26;28.20;38.90
19359;DHT22;9815;52.334;20.890;2023-08-06T13:07:54;28.20;39.00
19359;DHT22;9815;52.334;20.890;2023-08-06T13:10:24;28.20;40.00
19359;DHT22;9815;52.334;20.890;2023-08-06T13:12:54;28.30;38.70
19359;DHT22;9815;52.334;20.890;2023-08-06T13:15:22;28.30;38.50
19359;DHT22;9815;52.334;20.890;2023-08-06T13:17:50;28.40;40.20
19359;DHT22;9815;52.334;20.890;2023-08-06T13:20:19;28.50;40.70
19359;DHT22;9815;52.334;20.890;2023-08-06T13:22:47;28.60;40.20
19359;DHT22;9815;52.334;20.890;2023-08-06T13:25:18;28.70;39.50
19359;DHT22;9815;52.334;20.890;2023-08-06T13:27:48;28.90;39.20
19359;DHT22;9815;52.334;20.890;2023-08-06T13:30:17;29.00;38.10
19359;DHT22;9815;52.334;20.890;2023-08-06T13:32:46;29.30;37.30
19359;DHT22;9815;52.334;20.890;2023-08-06T13:35:14;29.90;35.00
19359;DHT22;9815;52.334;20.890;2023-08-06T13:37:43;30.50;34.80
19359;DHT22;9815;52.334;20.890;2023-08-06T13:40:11;30.70;31.80
19359;DHT22;9815;52.334;20.890;2023-08-06T13:42:40;30.50;31.80
19359;DHT22;9815;52.334;20.890;2023-08-06T13:45:10;30.70;31.50
19359;DHT22;9815;52.334;20.890;2023-08-06T13:47:38;30.90;30.70
19359;DHT22;9815;52.334;20.890;2023-08-06T13:50:07;31.20;30.00
19359;DHT22;9815;52.334;20.890;2023-08-06T13:52:36;31.20;31.10
19359;DHT22;9815;52.334;20.890;2023-08-06T13:55:04;31.30;30.20
19359;DHT22;9815;52.334;20.890;2023-08-06T13:57:34;31.10;30.30
19359;DHT22;9815;52.334;20.890;2023-08-06T14:00:03;31.00;31.80
19359;DHT22;9815;52.334;20.890;2023-08-06T14:02:40;30.40;33.60
19359;DHT22;9815;52.334;20.890;2023-08-06T14:05:11;29.90;34.60
19359;DHT22;9815;52.334;20.890;2023-08-06T14:07:39;29.60;37.10
19359;DHT22;9815;52.334;20.890;2023-08-06T14:10:08;29.50;37.90
19359;DHT22;9815;52.334;20.890;2023-08-06T14:12:37;29.20;38.20
19359;DHT22;9815;52.334;20.890;2023-08-06T14:15:05;29.10;39.60
19359;DHT22;9815;52.334;20.890;2023-08-06T14:17:34;29.10;38.70
19359;DHT22;9815;52.334;20.890;2023-08-06T14:20:05;29.20;39.70
19359;DHT22;9815;52.334;20.890;2023-08-06T14:22:35;29.50;38.70
19359;DHT22;9815;52.334;20.890;2023-08-06T14:25:04;29.90;38.30
19359;DHT22;9815;52.334;20.890;2023-08-06T14:27:33;30.10;37.90
19359;DHT22;9815;52.334;20.890;2023-08-06T14:30:01;29.90;36.50
19359;DHT22;9815;52.334;20.890;2023-08-06T14:32:30;29.70;37.00
19359;DHT22;9815;52.334;20.890;2023-08-06T14:34:58;29.40;37.30
19359;DHT22;9815;52.334;20.890;2023-08-06T14:37:28;29.10;38.90
19359;DHT22;9815;52.334;20.890;2023-08-06T14:39:56;28.90;38.80
19359;DHT22;9815;52.334;20.890;2023-08-06T14:42:25;28.70;39.30
19359;DHT22;9815;52.334;20.890;2023-08-06T14:44:53;28.70;38.90
19359;DHT22;9815;52.334;20.890;2023-08-06T14:47:21;28.70;39.00
19359;DHT22;9815;52.334;20.890;2023-08-06T14:49:50;28.60;41.00
19359;DHT22;9815;52.334;20.890;2023-08-06T14:52:18;28.40;39.80
19359;DHT22;9815;52.334;20.890;2023-08-06T14:54:48;28.40;40.60
19359;DHT22;9815;52.334;20.890;2023-08-06T14:57:19;28.30;38.90
19359;DHT22;9815;52.334;20.890;2023-08-06T14:59:48;28.30;39.70
19359;DHT22;9815;52.334;20.890;2023-08-06T15:02:16;28.10;42.90
19359;DHT22;9815;52.334;20.890;2023-08-06T15:04:45;28.00;50.60
19359;DHT22;9815;52.334;20.890;2023-08-06T15:07:14;27.90;61.70
19359;DHT22;9815;52.334;20.890;2023-08-06T15:09:42;27.80;73.80
19359;DHT22;9815;52.334;20.890;2023-08-06T15:12:32;28.00;72.30
19359;DHT22;9815;52.334;20.890;2023-08-06T15:15:00;28.10;70.80
19359;DHT22;9815;52.334;20.890;2023-08-06T15:17:29;28.30;71.50
19359;DHT22;9815;52.334;20.890;2023-08-06T15:19:57;28.40;64.00
19359;DHT22;9815;52.334;20.890;2023-08-06T15:22:26;28.10;60.00
19359;DHT22;9815;52.334;20.890;2023-08-06T15:24:56;28.20;55.20
19359;DHT22;9815;52.334;20.890;2023-08-06T15:27:24;28.30;50.70
19359;DHT22;9815;52.334;20.890;2023-08-06T15:29:54;28.20;43.90
19359;DHT22;9815;52.334;20.890;2023-08-06T15:32:23;27.90;45.00
19359;DHT22;9815;52.334;20.890;2023-08-06T15:34:52;27.60;45.10
19359;DHT22;9815;52.334;20.890;2023-08-06T15:37:21;27.30;49.00
19359;DHT22;9815;52.334;20.890;2023-08-06T15:39:49;27.00;53.70
19359;DHT22;9815;52.334;20.890;2023-08-06T15:42:18;26.90;53.30
19359;DHT22;9815;52.334;20.890;2023-08-06T15:44:46;26.70;57.30
19359;DHT22;9815;52.334;20.890;2023-08-06T15:47:16;26.60;58.00